createdAt,value
2019-02-02T00:01:24.354Z,97559.96
2019-02-02T00:03:58.823Z,97562.20
2019-02-02T00:06:33.090Z,97556.84
2019-02-02T00:09:10.135Z,97553.75
2019-02-02T00:11:43.247Z,97556.08
2019-02-02T00:14:16.028Z,97552.98
2019-02-02T00:16:51.392Z,97553.91
2019-02-02T00:19:25.787Z,97549.26
2019-02-02T00:21:58.776Z,97547.16
2019-02-02T00:24:34.440Z,97547.31
2019-02-02T00:27:08.121Z,97543.28
2019-02-02T00:29:40.952Z,97543.02
2019-02-02T00:32:15.532Z,97543.89
2019-02-02T00:34:49.110Z,97538.70
2019-02-02T00:37:22.923Z,97543.19
2019-02-02T00:40:03.808Z,97547.84
2019-02-02T00:42:37.287Z,97550.81
2019-02-02T00:45:10.903Z,97549.19
2019-02-02T00:47:46.723Z,97553.50
2019-02-02T00:50:20.603Z,97555.18
2019-02-02T00:52:54.215Z,97551.64
2019-02-02T00:55:27.818Z,97552.31
2019-02-02T00:58:02.189Z,97550.40
2019-02-02T01:00:36.024Z,97554.73
2019-02-02T01:03:10.373Z,97552.70
2019-02-02T01:05:43.231Z,97553.00
2019-02-02T01:08:17.059Z,97556.95
2019-02-02T01:10:51.283Z,97551.41
2019-02-02T01:13:25.164Z,97552.64
2019-02-02T01:15:57.841Z,97553.42
2019-02-02T01:18:31.753Z,97558.08
2019-02-02T01:21:04.620Z,97552.09
2019-02-02T01:23:37.468Z,97547.73
2019-02-02T01:26:12.048Z,97547.42
2019-02-02T01:28:44.818Z,97549.86
2019-02-02T01:31:17.636Z,97547.95
2019-02-02T01:33:50.826Z,97552.98
2019-02-02T01:36:23.523Z,97554.62
2019-02-02T01:38:56.373Z,97560.72
2019-02-02T01:41:29.537Z,97559.87
2019-02-02T01:44:03.244Z,97558.12
2019-02-02T01:46:35.921Z,97553.89
2019-02-02T01:49:09.174Z,97556.00
2019-02-02T01:51:41.978Z,97560.50
2019-02-02T01:54:15.365Z,97554.68
2019-02-02T01:56:48.524Z,97551.81
2019-02-02T01:59:21.271Z,97549.39
2019-02-02T02:01:54.131Z,97552.63
2019-02-02T02:04:27.214Z,97550.68
2019-02-02T02:07:00.072Z,97550.06
2019-02-02T02:09:34.088Z,97548.72
2019-02-02T02:12:07.493Z,97549.27
2019-02-02T02:14:42.205Z,97548.81
2019-02-02T02:17:15.876Z,97552.22
2019-02-02T02:19:50.456Z,97554.25
2019-02-02T02:22:24.968Z,97548.03
2019-02-02T02:24:57.834Z,97547.81
2019-02-02T02:27:30.856Z,97552.49
2019-02-02T02:30:06.172Z,97560.81
2019-02-02T02:32:39.747Z,97563.48
2019-02-02T02:35:16.559Z,97564.89
2019-02-02T02:37:49.559Z,97573.91
2019-02-02T02:40:24.072Z,97577.17
2019-02-02T02:42:58.404Z,97577.08
2019-02-02T02:45:32.028Z,97574.91
2019-02-02T02:48:06.324Z,97578.69
2019-02-02T02:50:39.597Z,97583.98
2019-02-02T02:53:12.433Z,97583.50
2019-02-02T02:55:45.167Z,97593.28
2019-02-02T02:58:19.398Z,97597.12
2019-02-02T03:00:54.140Z,97593.50
2019-02-02T03:03:27.242Z,97596.52
2019-02-02T03:06:00.396Z,97594.86
2019-02-02T03:08:33.212Z,97592.50
2019-02-02T03:11:06.400Z,97599.45
2019-02-02T03:13:39.551Z,97603.90
2019-02-02T03:16:12.394Z,97612.05
2019-02-02T03:18:45.186Z,97612.59
2019-02-02T03:21:18.921Z,97623.87
2019-02-02T03:23:52.055Z,97619.34
2019-02-02T03:26:25.033Z,97618.81
2019-02-02T03:28:58.128Z,97629.63
2019-02-02T03:31:30.865Z,97631.56
2019-02-02T03:34:03.631Z,97638.09
2019-02-02T03:36:36.882Z,97640.13
2019-02-02T03:39:12.958Z,97634.09
2019-02-02T03:41:45.718Z,97636.57
2019-02-02T03:44:19.006Z,97638.64
2019-02-02T03:46:51.712Z,97635.04
2019-02-02T03:49:24.515Z,97628.48
2019-02-02T03:51:57.521Z,97629.89
2019-02-02T03:54:30.282Z,97632.39
2019-02-02T03:57:03.129Z,97633.05
2019-02-02T03:59:36.390Z,97633.94
2019-02-02T04:02:09.375Z,97630.28
2019-02-02T04:04:42.619Z,97632.45
2019-02-02T04:07:17.006Z,97633.26
2019-02-02T04:09:49.887Z,97632.68
2019-02-02T04:12:24.688Z,97635.72
2019-02-02T04:14:59.355Z,97637.54
2019-02-02T04:17:32.030Z,97639.81
2019-02-02T04:20:09.868Z,97642.58
2019-02-02T04:22:43.055Z,97648.50
2019-02-02T04:25:18.805Z,97651.23
2019-02-02T04:27:51.805Z,97654.33
2019-02-02T04:30:26.299Z,97657.09
2019-02-02T04:33:01.486Z,97653.71
2019-02-02T04:35:34.242Z,97655.05
2019-02-02T04:38:06.931Z,97654.25
2019-02-02T04:40:41.270Z,97647.47
2019-02-02T04:43:13.925Z,97642.86
2019-02-02T04:45:47.013Z,97648.63
2019-02-02T04:48:20.151Z,97649.78
2019-02-02T04:50:52.765Z,97647.69
2019-02-02T04:53:25.472Z,97648.95
2019-02-02T04:55:59.535Z,97650.43
2019-02-02T04:58:32.309Z,97652.59
2019-02-02T05:01:05.015Z,97656.91
2019-02-02T05:03:39.452Z,97656.89
2019-02-02T05:06:12.195Z,97658.77
2019-02-02T05:08:45.011Z,97663.80
2019-02-02T05:11:18.211Z,97671.13
2019-02-02T05:13:51.309Z,97670.97
2019-02-02T05:16:24.003Z,97668.59
2019-02-02T05:18:57.525Z,97675.86
2019-02-02T05:21:30.306Z,97676.92
2019-02-02T05:24:03.340Z,97677.39
2019-02-02T05:26:37.490Z,97684.34
2019-02-02T05:29:12.440Z,97686.02
2019-02-02T05:31:45.097Z,97687.27
2019-02-02T05:34:18.499Z,97687.59
2019-02-02T05:36:51.516Z,97685.68
2019-02-02T05:39:24.275Z,97681.34
2019-02-02T05:41:57.685Z,97681.25
2019-02-02T05:44:30.692Z,97682.42
2019-02-02T05:47:03.647Z,97684.59
2019-02-02T05:49:36.785Z,97690.59
2019-02-02T05:52:09.647Z,97682.83
2019-02-02T05:54:43.064Z,97683.86
2019-02-02T05:57:16.611Z,97688.38
2019-02-02T05:59:53.028Z,97688.80
2019-02-02T06:02:26.082Z,97692.95
2019-02-02T06:04:59.288Z,97695.70
2019-02-02T06:07:32.089Z,97695.46
2019-02-02T06:10:07.217Z,97691.79
2019-02-02T06:12:41.106Z,97697.85
2019-02-02T06:15:17.729Z,97696.03
2019-02-02T06:17:51.762Z,97693.84
2019-02-02T06:20:26.000Z,97694.91
2019-02-02T06:23:04.928Z,97696.94
2019-02-02T06:25:37.979Z,97695.02
2019-02-02T06:28:11.010Z,97696.38
2019-02-02T06:30:45.363Z,97697.78
2019-02-02T06:33:18.961Z,97705.97
2019-02-02T06:35:52.056Z,97705.98
2019-02-02T06:38:25.256Z,97710.53
2019-02-02T06:41:00.154Z,97711.23
2019-02-02T06:43:35.018Z,97714.92
2019-02-02T06:46:08.197Z,97720.34
2019-02-02T06:48:40.905Z,97726.22
2019-02-02T06:51:14.359Z,97732.00
2019-02-02T06:53:47.171Z,97730.92
2019-02-02T06:56:19.792Z,97733.38
2019-02-02T06:58:53.183Z,97737.41
2019-02-02T07:01:26.001Z,97740.41
2019-02-02T07:04:00.579Z,97744.87
2019-02-02T07:06:34.571Z,97741.27
2019-02-02T07:09:09.530Z,97744.61
2019-02-02T07:11:43.346Z,97753.49
2019-02-02T07:14:22.285Z,97750.61
2019-02-02T07:16:55.602Z,97755.81
2019-02-02T07:19:29.572Z,97759.56
2019-02-02T07:22:03.932Z,97767.87
2019-02-02T07:24:36.735Z,97776.52
2019-02-02T07:27:09.533Z,97785.38
2019-02-02T07:29:43.506Z,97790.63
2019-02-02T07:32:16.289Z,97794.09
2019-02-02T07:34:49.705Z,97789.88
2019-02-02T07:37:24.155Z,97788.94
2019-02-02T07:39:56.839Z,97793.03
2019-02-02T07:42:29.646Z,97797.03
2019-02-02T07:45:06.118Z,97801.64
2019-02-02T07:47:38.955Z,97799.72
2019-02-02T07:50:13.994Z,97801.47
2019-02-02T07:52:47.269Z,97810.33
2019-02-02T07:55:20.653Z,97812.20
2019-02-02T07:57:55.959Z,97822.81
2019-02-02T08:00:40.659Z,97829.65
2019-02-02T08:03:18.777Z,97837.52
2019-02-02T08:05:51.812Z,97844.89
2019-02-02T08:08:25.265Z,97848.01
2019-02-02T08:10:58.362Z,97851.19
2019-02-02T08:13:31.706Z,97849.94
2019-02-02T08:16:04.702Z,97856.34
2019-02-02T08:18:37.556Z,97857.59
2019-02-02T08:21:12.809Z,97851.18
2019-02-02T08:23:45.664Z,97860.75
2019-02-02T08:26:18.925Z,97862.34
2019-02-02T08:28:52.083Z,97865.30
2019-02-02T08:31:25.844Z,97869.13
2019-02-02T08:33:59.629Z,97876.06
2019-02-02T08:36:32.949Z,97876.48
2019-02-02T08:39:10.314Z,97879.43
2019-02-02T08:41:45.305Z,97878.91
2019-02-02T08:44:18.686Z,97883.59
2019-02-02T08:46:52.083Z,97890.54
2019-02-02T08:49:25.848Z,97896.45
2019-02-02T08:52:00.627Z,97896.83
2019-02-02T08:54:34.338Z,97909.09
2019-02-02T08:57:07.109Z,97914.23
2019-02-02T08:59:41.196Z,97914.56
2019-02-02T09:02:15.537Z,97919.63
2019-02-02T09:04:50.366Z,97920.18
2019-02-02T09:07:23.112Z,97921.93
2019-02-02T09:09:57.676Z,97926.72
2019-02-02T09:12:30.357Z,97932.50
2019-02-02T09:15:09.295Z,97929.28
2019-02-02T09:17:52.452Z,97933.13
2019-02-02T09:20:29.498Z,97936.83
2019-02-02T09:23:06.439Z,97942.20
2019-02-02T09:25:39.896Z,97943.37
2019-02-02T09:28:12.994Z,97952.48
2019-02-02T09:30:46.193Z,97956.45
2019-02-02T09:33:19.969Z,97960.34
2019-02-02T09:35:52.789Z,97962.80
2019-02-02T09:38:27.921Z,97961.11
2019-02-02T09:41:01.428Z,97960.94
2019-02-02T09:43:39.687Z,97955.27
2019-02-02T09:46:13.090Z,97959.03
2019-02-02T09:48:45.998Z,97958.78
2019-02-02T09:51:19.855Z,97962.67
2019-02-02T09:53:53.580Z,97966.66
2019-02-02T09:56:27.195Z,97969.45
2019-02-02T09:59:03.890Z,97971.76
2019-02-02T10:01:39.516Z,97973.62
2019-02-02T10:04:16.469Z,97984.08
2019-02-02T10:06:50.703Z,97981.41
2019-02-02T10:09:28.214Z,97981.54
2019-02-02T10:12:02.472Z,97981.00
2019-02-02T10:14:39.823Z,97980.33
2019-02-02T10:17:12.602Z,97990.34
2019-02-02T10:19:47.343Z,97985.69
2019-02-02T10:22:20.551Z,97992.30
2019-02-02T10:24:53.562Z,97996.29
2019-02-02T10:27:27.543Z,98009.34
2019-02-02T10:30:03.215Z,98014.55
2019-02-02T10:32:36.842Z,98010.36
2019-02-02T10:35:13.756Z,98009.64
2019-02-02T10:37:48.607Z,98009.77
2019-02-02T10:40:21.429Z,98011.66
2019-02-02T10:42:56.769Z,98012.50
2019-02-02T10:45:29.638Z,98012.69
2019-02-02T10:48:02.558Z,98011.98
2019-02-02T10:50:35.933Z,98013.73
2019-02-02T10:53:11.394Z,98017.44
2019-02-02T10:55:44.480Z,98018.17
2019-02-02T10:58:24.306Z,98017.89
2019-02-02T11:00:58.382Z,98014.23
2019-02-02T11:03:31.293Z,98018.10
2019-02-02T11:06:05.648Z,98023.58
2019-02-02T11:08:39.152Z,98019.94
2019-02-02T11:11:13.081Z,98022.55
2019-02-02T11:13:46.658Z,98024.33
2019-02-02T11:16:19.510Z,98034.55
2019-02-02T11:18:52.443Z,98027.06
2019-02-02T11:21:30.500Z,98032.41
2019-02-02T11:24:11.931Z,98033.13
2019-02-02T11:26:45.248Z,98034.31
2019-02-02T11:29:20.262Z,98045.14
2019-02-02T11:32:02.490Z,98042.77
2019-02-02T11:34:42.730Z,98043.69
2019-02-02T11:37:23.680Z,98050.00
2019-02-02T11:39:57.335Z,98053.00
2019-02-02T11:42:30.717Z,98060.27
2019-02-02T11:45:08.313Z,98058.34
2019-02-02T11:47:43.779Z,98071.06
2019-02-02T11:50:18.800Z,98075.09
2019-02-02T11:52:51.630Z,98080.81
2019-02-02T11:55:25.643Z,98087.46
2019-02-02T11:57:57.897Z,98090.25
2019-02-02T12:00:38.422Z,98102.22
2019-02-02T12:03:13.317Z,98103.69
2019-02-02T12:05:46.311Z,98105.06
2019-02-02T12:08:20.372Z,98111.49
2019-02-02T12:10:55.890Z,98114.75
2019-02-02T12:13:31.184Z,98122.64
2019-02-02T12:16:10.444Z,98129.97
2019-02-02T12:18:46.777Z,98134.74
2019-02-02T12:21:22.437Z,98142.00
2019-02-02T12:24:13.109Z,98146.47
2019-02-02T12:27:00.017Z,98155.82
2019-02-02T12:29:33.786Z,98162.72
2019-02-02T12:32:08.703Z,98171.84
2019-02-02T12:34:45.840Z,98174.18
2019-02-02T12:37:21.289Z,98178.02
2019-02-02T12:39:54.025Z,98183.03
2019-02-02T12:42:33.441Z,98182.06
2019-02-02T12:45:27.082Z,98179.41
2019-02-02T12:48:01.680Z,98179.38
2019-02-02T12:50:37.733Z,98177.23
2019-02-02T12:53:12.600Z,98177.80
2019-02-02T12:55:46.410Z,98178.60
2019-02-02T12:58:19.801Z,98177.13
2019-02-02T13:00:53.267Z,98181.88
2019-02-02T13:03:27.709Z,98187.24
2019-02-02T13:06:02.246Z,98193.03
2019-02-02T13:08:35.001Z,98199.48
2019-02-02T13:11:09.832Z,98200.84
2019-02-02T13:13:43.709Z,98207.91
2019-02-02T13:16:16.681Z,98207.22
2019-02-02T13:18:53.896Z,98206.89
2019-02-02T13:21:29.389Z,98203.36
2019-02-02T13:24:05.103Z,98204.33
2019-02-02T13:26:40.796Z,98210.66
2019-02-02T13:29:14.843Z,98208.81
2019-02-02T13:31:47.836Z,98210.92
2019-02-02T13:34:27.559Z,98219.25
2019-02-02T13:37:13.310Z,98219.73
2019-02-02T13:39:47.850Z,98225.30
2019-02-02T13:42:20.584Z,98228.23
2019-02-02T13:44:55.727Z,98229.84
2019-02-02T13:47:30.286Z,98228.33
2019-02-02T13:50:03.615Z,98232.75
2019-02-02T13:52:39.952Z,98237.56
2019-02-02T13:55:14.991Z,98238.78
2019-02-02T13:57:49.486Z,98248.13
2019-02-02T14:00:27.491Z,98250.86
2019-02-02T14:03:03.994Z,98258.55
2019-02-02T14:05:39.651Z,98258.61
2019-02-02T14:08:16.016Z,98262.49
2019-02-02T14:10:48.933Z,98267.81
2019-02-02T14:13:22.332Z,98273.77
2019-02-02T14:15:55.190Z,98281.91
2019-02-02T14:18:29.135Z,98284.70
2019-02-02T14:21:01.936Z,98290.45
2019-02-02T14:23:35.668Z,98289.58
2019-02-02T14:26:09.629Z,98296.34
2019-02-02T14:28:43.319Z,98295.62
2019-02-02T14:31:16.543Z,98298.61
2019-02-02T14:33:50.955Z,98304.86
2019-02-02T14:36:24.519Z,98304.97
2019-02-02T14:38:58.910Z,98303.98
2019-02-02T14:41:35.704Z,98310.77
2019-02-02T14:44:11.021Z,98314.46
2019-02-02T14:46:45.236Z,98328.84
2019-02-02T14:49:19.511Z,98332.17
2019-02-02T14:51:55.129Z,98334.70
2019-02-02T14:54:28.826Z,98338.33
2019-02-02T14:57:02.210Z,98337.06
2019-02-02T14:59:35.577Z,98339.84
2019-02-02T15:02:10.734Z,98350.16
2019-02-02T15:04:45.423Z,98360.72
2019-02-02T15:07:22.381Z,98364.70
2019-02-02T15:09:55.466Z,98376.97
2019-02-02T15:12:28.359Z,98380.98
2019-02-02T15:15:07.950Z,98380.80
2019-02-02T15:17:44.582Z,98387.87
2019-02-02T15:20:26.710Z,98389.87
2019-02-02T15:23:13.126Z,98388.00
2019-02-02T15:25:54.241Z,98384.65
2019-02-02T15:28:32.001Z,98388.66
2019-02-02T15:31:08.023Z,98391.08
2019-02-02T15:33:43.396Z,98404.20
2019-02-02T15:36:21.292Z,98406.78
2019-02-02T15:39:00.877Z,98415.91
2019-02-02T15:41:39.076Z,98418.52
2019-02-02T15:44:17.290Z,98414.13
2019-02-02T15:46:58.816Z,98424.11
2019-02-02T15:49:36.634Z,98431.53
2019-02-02T15:52:16.154Z,98433.22
2019-02-02T15:54:54.494Z,98436.77
2019-02-02T15:57:33.280Z,98449.11
2019-02-02T16:00:25.094Z,98455.22
2019-02-02T16:03:10.309Z,98459.45
2019-02-02T16:05:49.244Z,98472.08
2019-02-02T16:08:32.599Z,98478.23
2019-02-02T16:11:14.209Z,98490.22
2019-02-02T16:13:50.063Z,98498.08
2019-02-02T16:16:23.489Z,98500.87
2019-02-02T16:18:56.851Z,98510.90
2019-02-02T16:21:31.178Z,98512.60
2019-02-02T16:24:09.799Z,98515.51
2019-02-02T16:26:48.884Z,98520.45
2019-02-02T16:29:23.542Z,98519.31
2019-02-02T16:31:58.453Z,98523.97
2019-02-02T16:34:36.811Z,98523.68
2019-02-02T16:37:10.966Z,98535.41
2019-02-02T16:39:48.891Z,98538.37
2019-02-02T16:42:22.688Z,98539.40
2019-02-02T16:44:55.365Z,98548.02
2019-02-02T16:47:28.221Z,98551.77
2019-02-02T16:50:00.909Z,98561.55
2019-02-02T16:52:33.718Z,98558.75
2019-02-02T16:55:17.255Z,98570.22
2019-02-02T16:57:50.880Z,98584.11
2019-02-02T17:00:30.537Z,98592.89
2019-02-02T17:03:03.983Z,98603.42
2019-02-02T17:05:38.569Z,98610.86
2019-02-02T17:08:15.339Z,98613.31
2019-02-02T17:10:50.811Z,98623.90
2019-02-02T17:13:25.685Z,98625.20
2019-02-02T17:16:02.840Z,98632.11
2019-02-02T17:18:35.801Z,98629.48
2019-02-02T17:21:09.348Z,98634.14
2019-02-02T17:23:42.731Z,98638.93
2019-02-02T17:26:16.414Z,98644.83
2019-02-02T17:28:52.289Z,98652.70
2019-02-02T17:31:27.278Z,98654.83
2019-02-02T17:34:02.433Z,98660.33
2019-02-02T17:36:35.501Z,98668.45
2019-02-02T17:39:10.898Z,98676.70
2019-02-02T17:41:44.212Z,98678.08
2019-02-02T17:44:17.744Z,98686.86
2019-02-02T17:46:52.729Z,98694.91
2019-02-02T17:49:36.951Z,98695.73
2019-02-02T17:52:11.654Z,98706.64
2019-02-02T17:54:47.248Z,98708.22
2019-02-02T17:57:20.075Z,98710.36
2019-02-02T17:59:55.850Z,98715.86
2019-02-02T18:02:31.981Z,98727.48
2019-02-02T18:05:05.417Z,98732.66
2019-02-02T18:07:38.569Z,98741.41
2019-02-02T18:10:16.565Z,98750.58
2019-02-02T18:12:53.140Z,98756.05
2019-02-02T18:15:29.186Z,98762.48
2019-02-02T18:18:03.412Z,98763.88
2019-02-02T18:20:38.193Z,98769.03
2019-02-02T18:23:11.127Z,98771.44
2019-02-02T18:25:44.987Z,98783.02
2019-02-02T18:28:24.201Z,98786.12
2019-02-02T18:30:59.555Z,98787.51
2019-02-02T18:33:35.815Z,98789.46
2019-02-02T18:36:10.992Z,98796.30
2019-02-02T18:38:45.486Z,98794.88
2019-02-02T18:41:19.708Z,98801.11
2019-02-02T18:43:53.347Z,98805.77
2019-02-02T18:46:31.902Z,98808.42
2019-02-02T18:49:06.784Z,98814.76
2019-02-02T18:51:42.259Z,98822.12
2019-02-02T18:54:26.769Z,98819.02
2019-02-02T18:57:01.947Z,98819.27
2019-02-02T18:59:42.368Z,98821.20
2019-02-02T19:02:15.683Z,98820.66
2019-02-02T19:04:49.137Z,98820.18
2019-02-02T19:07:33.230Z,98823.34
2019-02-02T19:10:12.259Z,98825.38
2019-02-02T19:12:48.616Z,98826.67
2019-02-02T19:15:22.184Z,98833.41
2019-02-02T19:17:56.113Z,98839.00
2019-02-02T19:20:33.191Z,98838.05
2019-02-02T19:23:08.198Z,98845.75
2019-02-02T19:25:42.268Z,98844.52
2019-02-02T19:28:16.922Z,98852.59
2019-02-02T19:30:53.633Z,98864.16
2019-02-02T19:33:28.639Z,98868.06
2019-02-02T19:36:12.946Z,98875.95
2019-02-02T19:38:47.694Z,98886.20
2019-02-02T19:41:23.302Z,98888.11
2019-02-02T19:43:57.938Z,98894.79
2019-02-02T19:46:38.889Z,98899.06
2019-02-02T19:49:12.306Z,98907.90
2019-02-02T19:51:46.412Z,98919.34
2019-02-02T19:54:20.551Z,98931.86
2019-02-02T19:56:57.773Z,98935.77
2019-02-02T19:59:38.015Z,98950.34
2019-02-02T20:02:17.840Z,98959.19
2019-02-02T20:04:57.527Z,98964.72
2019-02-02T20:07:33.827Z,98971.11
2019-02-02T20:10:14.724Z,98978.27
2019-02-02T20:12:57.541Z,98982.91
2019-02-02T20:15:33.484Z,98982.85
2019-02-02T20:18:12.505Z,98988.11
2019-02-02T20:20:46.155Z,98995.89
2019-02-02T20:23:23.192Z,99000.59
2019-02-02T20:25:56.847Z,99001.68
2019-02-02T20:28:31.980Z,99007.20
2019-02-02T20:31:09.884Z,99004.53
2019-02-02T20:34:03.269Z,99008.56
2019-02-02T20:36:38.491Z,99025.94
2019-02-02T20:39:18.955Z,99022.50
2019-02-02T20:41:54.966Z,99030.45
2019-02-02T20:44:40.785Z,99041.05
2019-02-02T20:47:14.719Z,99045.38
2019-02-02T20:49:47.545Z,99046.38
2019-02-02T20:52:22.378Z,99057.47
2019-02-02T20:54:55.353Z,99066.31
2019-02-02T20:57:28.141Z,99075.59
2019-02-02T21:00:01.631Z,99082.28
2019-02-02T21:02:36.062Z,99092.88
2019-02-02T21:05:20.374Z,99094.44
2019-02-02T21:07:56.409Z,99102.67
2019-02-02T21:10:30.003Z,99115.09
2019-02-02T21:13:04.863Z,99123.89
2019-02-02T21:15:43.865Z,99130.30
2019-02-02T21:18:22.458Z,99139.16
2019-02-02T21:20:58.557Z,99145.81
2019-02-02T21:23:32.991Z,99146.58
2019-02-02T21:26:11.187Z,99140.14
2019-02-02T21:28:50.567Z,99136.72
2019-02-02T21:31:29.318Z,99138.45
2019-02-02T21:34:05.707Z,99142.85
2019-02-02T21:36:38.952Z,99146.67
2019-02-02T21:39:11.722Z,99156.48
2019-02-02T21:41:51.401Z,99162.45
2019-02-02T21:44:26.100Z,99169.45
2019-02-02T21:47:01.752Z,99175.56
2019-02-02T21:49:39.693Z,99176.84
2019-02-02T21:52:14.100Z,99177.95
2019-02-02T21:54:48.591Z,99173.69
2019-02-02T21:57:23.165Z,99180.97
2019-02-02T22:00:03.188Z,99189.39
2019-02-02T22:02:37.938Z,99194.70
2019-02-02T22:05:11.191Z,99203.77
2019-02-02T22:07:47.339Z,99204.52
2019-02-02T22:10:23.523Z,99210.14
2019-02-02T22:12:59.104Z,99213.94
2019-02-02T22:15:38.452Z,99209.81
2019-02-02T22:18:21.846Z,99209.08
2019-02-02T22:20:55.507Z,99214.17
2019-02-02T22:23:30.347Z,99226.51
2019-02-02T22:26:11.259Z,99230.53
2019-02-02T22:28:44.137Z,99234.52
2019-02-02T22:31:17.058Z,99238.17
2019-02-02T22:33:51.184Z,99240.64
2019-02-02T22:36:27.918Z,99242.83
2019-02-02T22:39:00.721Z,99251.48
2019-02-02T22:41:38.942Z,99264.31
2019-02-02T22:44:11.790Z,99272.83
2019-02-02T22:46:45.972Z,99277.23
2019-02-02T22:49:19.358Z,99289.70
2019-02-02T22:51:55.485Z,99301.05
2019-02-02T22:54:37.103Z,99314.94
2019-02-02T22:57:19.996Z,99320.01
2019-02-02T22:59:54.039Z,99327.10
2019-02-02T23:02:28.261Z,99337.11
2019-02-02T23:05:46.052Z,99339.38
2019-02-02T23:09:14.437Z,99351.00
2019-02-02T23:12:29.223Z,99355.50
2019-02-02T23:16:15.290Z,99366.42
2019-02-02T23:18:48.164Z,99372.04
2019-02-02T23:21:21.256Z,99375.95
2019-02-02T23:23:55.260Z,99386.00
2019-02-02T23:26:27.982Z,99384.50
2019-02-02T23:29:00.780Z,99388.45
2019-02-02T23:31:50.251Z,99384.72
2019-02-02T23:34:24.335Z,99392.06
2019-02-02T23:37:01.329Z,99398.84
2019-02-02T23:39:34.226Z,99393.43
2019-02-02T23:42:07.708Z,99387.92
2019-02-02T23:44:41.880Z,99391.87
2019-02-02T23:47:17.067Z,99395.29
2019-02-02T23:49:51.250Z,99389.62
2019-02-02T23:52:24.020Z,99394.97
2019-02-02T23:54:59.432Z,99398.21
2019-02-02T23:57:32.323Z,99403.91
